sensor_id;sensor_type;location;lat;lon;timestamp;P1;durP1;ratioP1;P2;durP2;ratioP2
11006;SDS011;8186;57.652;11.968;2022-12-18T00:02:15;32.07;;;16.20;;
11006;SDS011;8186;57.652;11.968;2022-12-18T00:04:42;30.47;;;16.70;;
11006;SDS011;8186;57.652;11.968;2022-12-18T00:07:10;43.40;;;20.03;;
11006;SDS011;8186;57.652;11.968;2022-12-18T00:09:37;38.67;;;18.80;;
11006;SDS011;8186;57.652;11.968;2022-12-18T00:12:05;40.73;;;19.60;;
11006;SDS011;8186;57.652;11.968;2022-12-18T00:14:32;34.17;;;17.90;;
11006;SDS011;8186;57.652;11.968;2022-12-18T00:16:59;35.40;;;18.57;;
11006;SDS011;8186;57.652;11.968;2022-12-18T00:19:26;37.30;;;19.40;;
11006;SDS011;8186;57.652;11.968;2022-12-18T00:21:53;35.60;;;16.70;;
11006;SDS011;8186;57.652;11.968;2022-12-18T00:24:21;36.33;;;19.73;;
11006;SDS011;8186;57.652;11.968;2022-12-18T00:26:48;32.27;;;16.70;;
11006;SDS011;8186;57.652;11.968;2022-12-18T00:29:15;44.53;;;19.17;;
11006;SDS011;8186;57.652;11.968;2022-12-18T00:31:42;36.70;;;19.10;;
11006;SDS011;8186;57.652;11.968;2022-12-18T00:34:10;36.13;;;17.40;;
11006;SDS011;8186;57.652;11.968;2022-12-18T00:36:38;31.27;;;16.60;;
11006;SDS011;8186;57.652;11.968;2022-12-18T00:39:06;38.33;;;17.43;;
11006;SDS011;8186;57.652;11.968;2022-12-18T00:41:35;30.13;;;16.30;;
11006;SDS011;8186;57.652;11.968;2022-12-18T00:44:19;35.00;;;17.10;;
11006;SDS011;8186;57.652;11.968;2022-12-18T00:46:46;33.93;;;16.80;;
11006;SDS011;8186;57.652;11.968;2022-12-18T00:49:14;32.37;;;15.43;;
11006;SDS011;8186;57.652;11.968;2022-12-18T00:51:42;32.33;;;15.73;;
11006;SDS011;8186;57.652;11.968;2022-12-18T00:54:09;24.20;;;14.47;;
11006;SDS011;8186;57.652;11.968;2022-12-18T00:56:38;34.00;;;17.60;;
11006;SDS011;8186;57.652;11.968;2022-12-18T00:59:05;30.13;;;16.13;;
11006;SDS011;8186;57.652;11.968;2022-12-18T01:01:33;31.10;;;16.77;;
11006;SDS011;8186;57.652;11.968;2022-12-18T01:04:00;30.20;;;14.73;;
11006;SDS011;8186;57.652;11.968;2022-12-18T01:06:28;29.67;;;15.27;;
11006;SDS011;8186;57.652;11.968;2022-12-18T01:08:55;28.60;;;16.17;;
11006;SDS011;8186;57.652;11.968;2022-12-18T01:11:22;36.10;;;16.03;;
11006;SDS011;8186;57.652;11.968;2022-12-18T01:13:51;24.00;;;14.30;;
11006;SDS011;8186;57.652;11.968;2022-12-18T01:16:18;29.17;;;15.53;;
11006;SDS011;8186;57.652;11.968;2022-12-18T01:18:45;22.57;;;13.83;;
11006;SDS011;8186;57.652;11.968;2022-12-18T01:21:12;28.07;;;14.90;;
11006;SDS011;8186;57.652;11.968;2022-12-18T01:23:40;28.17;;;16.40;;
11006;SDS011;8186;57.652;11.968;2022-12-18T01:26:12;32.50;;;17.73;;
11006;SDS011;8186;57.652;11.968;2022-12-18T01:28:40;30.80;;;15.53;;
11006;SDS011;8186;57.652;11.968;2022-12-18T01:31:14;33.50;;;16.53;;
11006;SDS011;8186;57.652;11.968;2022-12-18T01:33:44;32.10;;;17.77;;
11006;SDS011;8186;57.652;11.968;2022-12-18T01:36:14;34.17;;;16.93;;
11006;SDS011;8186;57.652;11.968;2022-12-18T01:38:44;32.23;;;17.93;;
11006;SDS011;8186;57.652;11.968;2022-12-18T01:41:11;32.60;;;17.17;;
11006;SDS011;8186;57.652;11.968;2022-12-18T01:43:42;34.13;;;15.57;;
11006;SDS011;8186;57.652;11.968;2022-12-18T01:46:10;36.17;;;16.77;;
11006;SDS011;8186;57.652;11.968;2022-12-18T01:48:39;30.63;;;15.23;;
11006;SDS011;8186;57.652;11.968;2022-12-18T01:51:07;26.30;;;13.87;;
11006;SDS011;8186;57.652;11.968;2022-12-18T01:53:37;29.87;;;14.77;;
11006;SDS011;8186;57.652;11.968;2022-12-18T01:56:07;20.67;;;10.40;;
11006;SDS011;8186;57.652;11.968;2022-12-18T01:58:35;26.80;;;12.43;;
11006;SDS011;8186;57.652;11.968;2022-12-18T02:01:08;32.40;;;13.63;;
11006;SDS011;8186;57.652;11.968;2022-12-18T02:03:35;25.03;;;11.90;;
11006;SDS011;8186;57.652;11.968;2022-12-18T02:06:05;27.00;;;11.90;;
11006;SDS011;8186;57.652;11.968;2022-12-18T02:08:38;25.93;;;13.13;;
11006;SDS011;8186;57.652;11.968;2022-12-18T02:11:10;31.73;;;13.83;;
11006;SDS011;8186;57.652;11.968;2022-12-18T02:13:41;32.23;;;15.67;;
11006;SDS011;8186;57.652;11.968;2022-12-18T02:16:14;33.00;;;15.27;;
11006;SDS011;8186;57.652;11.968;2022-12-18T02:18:47;26.70;;;13.07;;
11006;SDS011;8186;57.652;11.968;2022-12-18T02:21:20;31.47;;;15.33;;
11006;SDS011;8186;57.652;11.968;2022-12-18T02:23:55;25.90;;;13.17;;
11006;SDS011;8186;57.652;11.968;2022-12-18T02:26:26;29.07;;;13.93;;
11006;SDS011;8186;57.652;11.968;2022-12-18T02:28:55;37.90;;;14.03;;
11006;SDS011;8186;57.652;11.968;2022-12-18T02:31:27;30.60;;;13.90;;
11006;SDS011;8186;57.652;11.968;2022-12-18T02:33:57;33.73;;;14.37;;
11006;SDS011;8186;57.652;11.968;2022-12-18T02:36:27;26.13;;;12.40;;
11006;SDS011;8186;57.652;11.968;2022-12-18T02:38:54;24.83;;;11.13;;
11006;SDS011;8186;57.652;11.968;2022-12-18T02:41:23;22.37;;;11.80;;
11006;SDS011;8186;57.652;11.968;2022-12-18T02:43:53;31.60;;;12.97;;
11006;SDS011;8186;57.652;11.968;2022-12-18T02:46:28;25.57;;;11.60;;
11006;SDS011;8186;57.652;11.968;2022-12-18T02:48:59;28.10;;;11.43;;
11006;SDS011;8186;57.652;11.968;2022-12-18T02:51:35;27.13;;;11.17;;
11006;SDS011;8186;57.652;11.968;2022-12-18T02:54:07;26.53;;;11.73;;
11006;SDS011;8186;57.652;11.968;2022-12-18T02:56:38;20.70;;;9.20;;
11006;SDS011;8186;57.652;11.968;2022-12-18T02:59:11;25.43;;;9.37;;
11006;SDS011;8186;57.652;11.968;2022-12-18T03:01:41;33.50;;;11.67;;
11006;SDS011;8186;57.652;11.968;2022-12-18T03:04:13;25.87;;;11.70;;
11006;SDS011;8186;57.652;11.968;2022-12-18T03:06:43;23.47;;;10.83;;
11006;SDS011;8186;57.652;11.968;2022-12-18T03:09:14;25.33;;;11.93;;
11006;SDS011;8186;57.652;11.968;2022-12-18T03:11:46;25.17;;;10.23;;
11006;SDS011;8186;57.652;11.968;2022-12-18T03:14:36;25.63;;;10.13;;
11006;SDS011;8186;57.652;11.968;2022-12-18T03:17:05;26.20;;;11.90;;
11006;SDS011;8186;57.652;11.968;2022-12-18T03:19:38;22.03;;;10.70;;
11006;SDS011;8186;57.652;11.968;2022-12-18T03:22:07;28.63;;;13.03;;
11006;SDS011;8186;57.652;11.968;2022-12-18T03:24:34;25.50;;;11.33;;
11006;SDS011;8186;57.652;11.968;2022-12-18T03:27:06;23.43;;;10.43;;
11006;SDS011;8186;57.652;11.968;2022-12-18T03:29:38;28.27;;;11.50;;
11006;SDS011;8186;57.652;11.968;2022-12-18T03:32:07;27.90;;;12.73;;
11006;SDS011;8186;57.652;11.968;2022-12-18T03:34:37;27.37;;;11.80;;
11006;SDS011;8186;57.652;11.968;2022-12-18T03:37:05;22.37;;;10.93;;
11006;SDS011;8186;57.652;11.968;2022-12-18T03:39:33;22.03;;;10.33;;
11006;SDS011;8186;57.652;11.968;2022-12-18T03:42:01;39.47;;;12.70;;
11006;SDS011;8186;57.652;11.968;2022-12-18T03:44:35;27.13;;;12.07;;
11006;SDS011;8186;57.652;11.968;2022-12-18T03:47:07;24.90;;;10.53;;
11006;SDS011;8186;57.652;11.968;2022-12-18T03:49:37;30.37;;;12.20;;
11006;SDS011;8186;57.652;11.968;2022-12-18T03:52:06;29.17;;;13.37;;
11006;SDS011;8186;57.652;11.968;2022-12-18T03:54:35;23.77;;;11.57;;
11006;SDS011;8186;57.652;11.968;2022-12-18T03:57:04;28.40;;;12.90;;
11006;SDS011;8186;57.652;11.968;2022-12-18T03:59:36;29.37;;;12.30;;
11006;SDS011;8186;57.652;11.968;2022-12-18T04:02:04;34.47;;;14.80;;
11006;SDS011;8186;57.652;11.968;2022-12-18T04:04:33;27.03;;;13.17;;
11006;SDS011;8186;57.652;11.968;2022-12-18T04:07:00;23.73;;;10.63;;
11006;SDS011;8186;57.652;11.968;2022-12-18T04:09:28;16.80;;;9.50;;
11006;SDS011;8186;57.652;11.968;2022-12-18T04:11:56;28.63;;;12.27;;
11006;SDS011;8186;57.652;11.968;2022-12-18T04:14:25;20.23;;;9.53;;
11006;SDS011;8186;57.652;11.968;2022-12-18T04:16:52;25.60;;;11.87;;
11006;SDS011;8186;57.652;11.968;2022-12-18T04:19:19;32.53;;;12.83;;
11006;SDS011;8186;57.652;11.968;2022-12-18T04:21:46;31.07;;;12.73;;
11006;SDS011;8186;57.652;11.968;2022-12-18T04:24:13;24.23;;;10.30;;
11006;SDS011;8186;57.652;11.968;2022-12-18T04:26:40;23.20;;;12.07;;
11006;SDS011;8186;57.652;11.968;2022-12-18T04:29:07;28.90;;;12.27;;
11006;SDS011;8186;57.652;11.968;2022-12-18T04:31:35;22.57;;;10.33;;
11006;SDS011;8186;57.652;11.968;2022-12-18T04:34:02;19.00;;;9.13;;
11006;SDS011;8186;57.652;11.968;2022-12-18T04:36:29;22.33;;;9.53;;
11006;SDS011;8186;57.652;11.968;2022-12-18T04:38:56;26.17;;;10.60;;
11006;SDS011;8186;57.652;11.968;2022-12-18T04:41:23;30.03;;;11.03;;
11006;SDS011;8186;57.652;11.968;2022-12-18T04:43:50;16.97;;;8.80;;
11006;SDS011;8186;57.652;11.968;2022-12-18T04:46:17;21.80;;;10.33;;
11006;SDS011;8186;57.652;11.968;2022-12-18T04:48:46;22.17;;;10.17;;
11006;SDS011;8186;57.652;11.968;2022-12-18T04:51:13;22.00;;;8.67;;
11006;SDS011;8186;57.652;11.968;2022-12-18T04:53:40;21.60;;;9.13;;
11006;SDS011;8186;57.652;11.968;2022-12-18T04:56:08;18.57;;;8.53;;
11006;SDS011;8186;57.652;11.968;2022-12-18T04:58:36;22.20;;;9.70;;
11006;SDS011;8186;57.652;11.968;2022-12-18T05:01:04;25.57;;;8.23;;
11006;SDS011;8186;57.652;11.968;2022-12-18T05:03:32;22.47;;;8.97;;
11006;SDS011;8186;57.652;11.968;2022-12-18T05:06:01;16.77;;;8.07;;
11006;SDS011;8186;57.652;11.968;2022-12-18T05:08:28;20.57;;;7.17;;
11006;SDS011;8186;57.652;11.968;2022-12-18T05:10:58;18.97;;;7.73;;
11006;SDS011;8186;57.652;11.968;2022-12-18T05:13:26;26.53;;;9.13;;
11006;SDS011;8186;57.652;11.968;2022-12-18T05:15:53;15.00;;;6.47;;
11006;SDS011;8186;57.652;11.968;2022-12-18T05:18:20;20.53;;;7.67;;
11006;SDS011;8186;57.652;11.968;2022-12-18T05:20:48;17.80;;;7.17;;
11006;SDS011;8186;57.652;11.968;2022-12-18T05:23:17;20.97;;;8.17;;
11006;SDS011;8186;57.652;11.968;2022-12-18T05:25:50;18.53;;;6.63;;
11006;SDS011;8186;57.652;11.968;2022-12-18T05:28:17;17.30;;;7.00;;
11006;SDS011;8186;57.652;11.968;2022-12-18T05:30:47;16.77;;;6.03;;
11006;SDS011;8186;57.652;11.968;2022-12-18T05:33:15;11.83;;;5.93;;
11006;SDS011;8186;57.652;11.968;2022-12-18T05:35:42;20.70;;;5.90;;
11006;SDS011;8186;57.652;11.968;2022-12-18T05:38:09;32.07;;;6.60;;
11006;SDS011;8186;57.652;11.968;2022-12-18T05:40:37;12.67;;;4.60;;
11006;SDS011;8186;57.652;11.968;2022-12-18T05:43:08;16.23;;;5.37;;
11006;SDS011;8186;57.652;11.968;2022-12-18T05:45:36;9.70;;;3.97;;
11006;SDS011;8186;57.652;11.968;2022-12-18T05:48:03;14.00;;;5.13;;
11006;SDS011;8186;57.652;11.968;2022-12-18T05:50:33;15.80;;;5.17;;
11006;SDS011;8186;57.652;11.968;2022-12-18T05:53:00;8.63;;;5.20;;
11006;SDS011;8186;57.652;11.968;2022-12-18T05:55:28;16.23;;;5.03;;
11006;SDS011;8186;57.652;11.968;2022-12-18T05:57:56;14.73;;;5.37;;
11006;SDS011;8186;57.652;11.968;2022-12-18T06:00:24;13.50;;;5.50;;
11006;SDS011;8186;57.652;11.968;2022-12-18T06:02:52;12.70;;;6.23;;
11006;SDS011;8186;57.652;11.968;2022-12-18T06:05:19;13.57;;;5.33;;
11006;SDS011;8186;57.652;11.968;2022-12-18T06:07:46;10.60;;;5.03;;
11006;SDS011;8186;57.652;11.968;2022-12-18T06:10:13;10.50;;;5.20;;
11006;SDS011;8186;57.652;11.968;2022-12-18T06:12:40;22.20;;;6.03;;
11006;SDS011;8186;57.652;11.968;2022-12-18T06:15:08;15.93;;;5.67;;
11006;SDS011;8186;57.652;11.968;2022-12-18T06:17:36;11.23;;;5.27;;
11006;SDS011;8186;57.652;11.968;2022-12-18T06:20:03;15.87;;;5.97;;
11006;SDS011;8186;57.652;11.968;2022-12-18T06:22:32;11.40;;;5.00;;
11006;SDS011;8186;57.652;11.968;2022-12-18T06:25:00;17.37;;;5.67;;
11006;SDS011;8186;57.652;11.968;2022-12-18T06:27:27;12.70;;;5.50;;
11006;SDS011;8186;57.652;11.968;2022-12-18T06:29:54;14.53;;;4.63;;
11006;SDS011;8186;57.652;11.968;2022-12-18T06:32:22;15.03;;;4.47;;
11006;SDS011;8186;57.652;11.968;2022-12-18T06:34:49;15.70;;;5.10;;
11006;SDS011;8186;57.652;11.968;2022-12-18T06:37:16;14.90;;;4.80;;
11006;SDS011;8186;57.652;11.968;2022-12-18T06:39:43;12.87;;;4.60;;
11006;SDS011;8186;57.652;11.968;2022-12-18T06:42:10;14.97;;;4.70;;
11006;SDS011;8186;57.652;11.968;2022-12-18T06:44:37;16.20;;;5.13;;
11006;SDS011;8186;57.652;11.968;2022-12-18T06:47:04;13.07;;;4.27;;
11006;SDS011;8186;57.652;11.968;2022-12-18T06:49:32;10.30;;;5.03;;
11006;SDS011;8186;57.652;11.968;2022-12-18T06:52:00;16.30;;;4.53;;
11006;SDS011;8186;57.652;11.968;2022-12-18T06:54:27;13.57;;;5.57;;
11006;SDS011;8186;57.652;11.968;2022-12-18T06:56:54;12.77;;;4.63;;
11006;SDS011;8186;57.652;11.968;2022-12-18T06:59:21;17.70;;;4.83;;
11006;SDS011;8186;57.652;11.968;2022-12-18T07:01:48;14.27;;;4.70;;
11006;SDS011;8186;57.652;11.968;2022-12-18T07:04:15;14.07;;;4.87;;
11006;SDS011;8186;57.652;11.968;2022-12-18T07:06:43;12.37;;;4.10;;
11006;SDS011;8186;57.652;11.968;2022-12-18T07:09:10;18.07;;;5.33;;
11006;SDS011;8186;57.652;11.968;2022-12-18T07:11:37;19.93;;;5.73;;
11006;SDS011;8186;57.652;11.968;2022-12-18T07:14:04;10.03;;;3.50;;
11006;SDS011;8186;57.652;11.968;2022-12-18T07:16:31;15.03;;;4.83;;
11006;SDS011;8186;57.652;11.968;2022-12-18T07:18:58;9.10;;;3.77;;
11006;SDS011;8186;57.652;11.968;2022-12-18T07:21:26;20.00;;;4.33;;
11006;SDS011;8186;57.652;11.968;2022-12-18T07:23:54;23.67;;;5.50;;
11006;SDS011;8186;57.652;11.968;2022-12-18T07:26:22;12.20;;;4.20;;
11006;SDS011;8186;57.652;11.968;2022-12-18T07:28:49;11.67;;;3.80;;
11006;SDS011;8186;57.652;11.968;2022-12-18T07:31:17;13.10;;;5.27;;
11006;SDS011;8186;57.652;11.968;2022-12-18T07:33:45;12.67;;;3.70;;
11006;SDS011;8186;57.652;11.968;2022-12-18T07:36:12;12.20;;;4.00;;
11006;SDS011;8186;57.652;11.968;2022-12-18T07:38:39;11.47;;;3.50;;
11006;SDS011;8186;57.652;11.968;2022-12-18T07:41:08;14.33;;;4.47;;
11006;SDS011;8186;57.652;11.968;2022-12-18T07:43:37;12.60;;;4.30;;
11006;SDS011;8186;57.652;11.968;2022-12-18T07:46:05;16.77;;;4.17;;
11006;SDS011;8186;57.652;11.968;2022-12-18T07:48:33;13.30;;;4.17;;
11006;SDS011;8186;57.652;11.968;2022-12-18T07:51:00;11.60;;;4.03;;
11006;SDS011;8186;57.652;11.968;2022-12-18T07:53:29;9.40;;;2.90;;
11006;SDS011;8186;57.652;11.968;2022-12-18T07:55:56;12.40;;;3.70;;
11006;SDS011;8186;57.652;11.968;2022-12-18T07:58:25;12.27;;;4.00;;
11006;SDS011;8186;57.652;11.968;2022-12-18T08:00:52;8.87;;;3.93;;
11006;SDS011;8186;57.652;11.968;2022-12-18T08:03:19;12.13;;;4.67;;
11006;SDS011;8186;57.652;11.968;2022-12-18T08:05:46;8.23;;;4.00;;
11006;SDS011;8186;57.652;11.968;2022-12-18T08:08:13;8.00;;;3.30;;
11006;SDS011;8186;57.652;11.968;2022-12-18T08:10:40;10.50;;;3.97;;
11006;SDS011;8186;57.652;11.968;2022-12-18T08:13:07;13.60;;;4.37;;
11006;SDS011;8186;57.652;11.968;2022-12-18T08:15:35;10.17;;;4.40;;
11006;SDS011;8186;57.652;11.968;2022-12-18T08:18:02;11.63;;;4.70;;
11006;SDS011;8186;57.652;11.968;2022-12-18T08:20:29;10.60;;;4.33;;
11006;SDS011;8186;57.652;11.968;2022-12-18T08:22:56;15.13;;;5.43;;
11006;SDS011;8186;57.652;11.968;2022-12-18T08:25:23;8.90;;;3.60;;
11006;SDS011;8186;57.652;11.968;2022-12-18T08:27:50;14.27;;;4.10;;
11006;SDS011;8186;57.652;11.968;2022-12-18T08:30:17;8.57;;;3.57;;
11006;SDS011;8186;57.652;11.968;2022-12-18T08:32:46;16.07;;;5.13;;
11006;SDS011;8186;57.652;11.968;2022-12-18T08:35:14;11.53;;;4.47;;
11006;SDS011;8186;57.652;11.968;2022-12-18T08:37:41;15.90;;;5.43;;
11006;SDS011;8186;57.652;11.968;2022-12-18T08:40:09;12.57;;;5.40;;
11006;SDS011;8186;57.652;11.968;2022-12-18T08:42:37;12.97;;;5.03;;
11006;SDS011;8186;57.652;11.968;2022-12-18T08:45:22;20.73;;;6.23;;
11006;SDS011;8186;57.652;11.968;2022-12-18T08:47:51;15.63;;;6.17;;
11006;SDS011;8186;57.652;11.968;2022-12-18T08:50:18;17.90;;;6.17;;
11006;SDS011;8186;57.652;11.968;2022-12-18T08:52:45;15.93;;;5.80;;
11006;SDS011;8186;57.652;11.968;2022-12-18T08:55:12;13.97;;;5.20;;
11006;SDS011;8186;57.652;11.968;2022-12-18T08:57:39;15.03;;;5.50;;
11006;SDS011;8186;57.652;11.968;2022-12-18T09:00:07;14.47;;;6.17;;
11006;SDS011;8186;57.652;11.968;2022-12-18T09:02:35;15.10;;;4.90;;
11006;SDS011;8186;57.652;11.968;2022-12-18T09:05:03;11.80;;;5.60;;
11006;SDS011;8186;57.652;11.968;2022-12-18T09:07:31;11.63;;;4.30;;
11006;SDS011;8186;57.652;11.968;2022-12-18T09:09:58;15.57;;;4.97;;
11006;SDS011;8186;57.652;11.968;2022-12-18T09:12:25;16.80;;;5.53;;
11006;SDS011;8186;57.652;11.968;2022-12-18T09:14:52;13.23;;;6.00;;
11006;SDS011;8186;57.652;11.968;2022-12-18T09:17:19;17.03;;;6.17;;
11006;SDS011;8186;57.652;11.968;2022-12-18T09:19:46;13.67;;;5.80;;
11006;SDS011;8186;57.652;11.968;2022-12-18T09:22:14;13.57;;;5.70;;
11006;SDS011;8186;57.652;11.968;2022-12-18T09:24:41;19.67;;;5.97;;
11006;SDS011;8186;57.652;11.968;2022-12-18T09:27:08;17.20;;;5.57;;
11006;SDS011;8186;57.652;11.968;2022-12-18T09:29:35;21.00;;;6.23;;
11006;SDS011;8186;57.652;11.968;2022-12-18T09:32:02;13.13;;;5.33;;
11006;SDS011;8186;57.652;11.968;2022-12-18T09:34:30;17.70;;;5.73;;
11006;SDS011;8186;57.652;11.968;2022-12-18T09:36:57;13.17;;;5.17;;
11006;SDS011;8186;57.652;11.968;2022-12-18T09:39:25;13.87;;;5.63;;
11006;SDS011;8186;57.652;11.968;2022-12-18T09:41:52;18.77;;;5.30;;
11006;SDS011;8186;57.652;11.968;2022-12-18T09:44:25;19.07;;;5.47;;
11006;SDS011;8186;57.652;11.968;2022-12-18T09:46:57;15.03;;;5.17;;
11006;SDS011;8186;57.652;11.968;2022-12-18T09:49:31;14.13;;;4.73;;
11006;SDS011;8186;57.652;11.968;2022-12-18T09:52:02;12.33;;;5.13;;
11006;SDS011;8186;57.652;11.968;2022-12-18T09:54:36;18.07;;;4.97;;
11006;SDS011;8186;57.652;11.968;2022-12-18T09:57:05;12.03;;;4.03;;
11006;SDS011;8186;57.652;11.968;2022-12-18T09:59:34;13.60;;;4.67;;
11006;SDS011;8186;57.652;11.968;2022-12-18T10:02:11;15.70;;;4.63;;
11006;SDS011;8186;57.652;11.968;2022-12-18T10:04:41;16.67;;;5.90;;
11006;SDS011;8186;57.652;11.968;2022-12-18T10:07:09;13.73;;;4.43;;
11006;SDS011;8186;57.652;11.968;2022-12-18T10:09:43;14.90;;;4.93;;
11006;SDS011;8186;57.652;11.968;2022-12-18T10:12:17;16.07;;;6.07;;
11006;SDS011;8186;57.652;11.968;2022-12-18T10:14:49;19.13;;;4.40;;
11006;SDS011;8186;57.652;11.968;2022-12-18T10:17:22;13.33;;;4.13;;
11006;SDS011;8186;57.652;11.968;2022-12-18T10:19:55;18.43;;;4.80;;
11006;SDS011;8186;57.652;11.968;2022-12-18T10:22:26;12.87;;;3.90;;
11006;SDS011;8186;57.652;11.968;2022-12-18T10:25:03;18.10;;;4.93;;
11006;SDS011;8186;57.652;11.968;2022-12-18T10:27:33;11.97;;;4.77;;
11006;SDS011;8186;57.652;11.968;2022-12-18T10:30:04;13.20;;;3.90;;
11006;SDS011;8186;57.652;11.968;2022-12-18T10:32:38;13.13;;;3.60;;
11006;SDS011;8186;57.652;11.968;2022-12-18T10:35:07;9.57;;;3.93;;
11006;SDS011;8186;57.652;11.968;2022-12-18T10:37:42;14.60;;;4.20;;
11006;SDS011;8186;57.652;11.968;2022-12-18T10:40:27;9.87;;;4.03;;
11006;SDS011;8186;57.652;11.968;2022-12-18T10:43:04;11.70;;;3.77;;
11006;SDS011;8186;57.652;11.968;2022-12-18T10:45:32;14.70;;;4.50;;
11006;SDS011;8186;57.652;11.968;2022-12-18T10:48:00;8.10;;;3.93;;
11006;SDS011;8186;57.652;11.968;2022-12-18T10:50:28;11.33;;;3.90;;
11006;SDS011;8186;57.652;11.968;2022-12-18T10:52:57;12.80;;;4.13;;
11006;SDS011;8186;57.652;11.968;2022-12-18T10:55:25;10.93;;;3.43;;
11006;SDS011;8186;57.652;11.968;2022-12-18T10:57:57;10.90;;;3.83;;
11006;SDS011;8186;57.652;11.968;2022-12-18T11:00:40;8.20;;;3.53;;
11006;SDS011;8186;57.652;11.968;2022-12-18T11:03:11;10.93;;;3.67;;
11006;SDS011;8186;57.652;11.968;2022-12-18T11:06:01;19.73;;;4.00;;
11006;SDS011;8186;57.652;11.968;2022-12-18T11:08:30;10.43;;;4.07;;
11006;SDS011;8186;57.652;11.968;2022-12-18T11:10:58;10.90;;;4.30;;
11006;SDS011;8186;57.652;11.968;2022-12-18T11:13:26;8.77;;;3.57;;
11006;SDS011;8186;57.652;11.968;2022-12-18T11:15:53;16.37;;;3.90;;
11006;SDS011;8186;57.652;11.968;2022-12-18T11:18:22;13.80;;;4.53;;
11006;SDS011;8186;57.652;11.968;2022-12-18T11:20:53;9.93;;;4.63;;
11006;SDS011;8186;57.652;11.968;2022-12-18T11:23:21;10.57;;;3.80;;
11006;SDS011;8186;57.652;11.968;2022-12-18T11:25:56;15.03;;;4.00;;
11006;SDS011;8186;57.652;11.968;2022-12-18T11:28:26;11.67;;;4.60;;
11006;SDS011;8186;57.652;11.968;2022-12-18T11:33:59;15.77;;;5.70;;
11006;SDS011;8186;57.652;11.968;2022-12-18T11:36:28;17.70;;;4.70;;
11006;SDS011;8186;57.652;11.968;2022-12-18T11:38:59;14.27;;;4.63;;
11006;SDS011;8186;57.652;11.968;2022-12-18T11:41:29;17.20;;;5.40;;
11006;SDS011;8186;57.652;11.968;2022-12-18T11:44:13;17.63;;;5.17;;
11006;SDS011;8186;57.652;11.968;2022-12-18T11:46:43;13.47;;;4.87;;
11006;SDS011;8186;57.652;11.968;2022-12-18T11:49:15;21.20;;;5.17;;
11006;SDS011;8186;57.652;11.968;2022-12-18T11:51:47;13.80;;;5.10;;
11006;SDS011;8186;57.652;11.968;2022-12-18T11:54:16;12.90;;;5.40;;
11006;SDS011;8186;57.652;11.968;2022-12-18T11:56:46;12.40;;;5.20;;
11006;SDS011;8186;57.652;11.968;2022-12-18T11:59:15;10.17;;;4.30;;
11006;SDS011;8186;57.652;11.968;2022-12-18T12:01:51;12.67;;;4.43;;
11006;SDS011;8186;57.652;11.968;2022-12-18T12:04:40;15.43;;;5.40;;
11006;SDS011;8186;57.652;11.968;2022-12-18T12:07:17;14.70;;;5.07;;
11006;SDS011;8186;57.652;11.968;2022-12-18T12:09:49;8.40;;;3.90;;
11006;SDS011;8186;57.652;11.968;2022-12-18T12:12:26;14.03;;;4.23;;
11006;SDS011;8186;57.652;11.968;2022-12-18T12:15:13;15.03;;;4.47;;
11006;SDS011;8186;57.652;11.968;2022-12-18T12:17:48;12.40;;;4.10;;
11006;SDS011;8186;57.652;11.968;2022-12-18T12:20:19;9.80;;;4.53;;
11006;SDS011;8186;57.652;11.968;2022-12-18T12:22:50;12.27;;;4.77;;
11006;SDS011;8186;57.652;11.968;2022-12-18T12:25:29;16.13;;;4.50;;
11006;SDS011;8186;57.652;11.968;2022-12-18T12:28:05;14.13;;;5.43;;
11006;SDS011;8186;57.652;11.968;2022-12-18T12:30:40;15.93;;;4.50;;
11006;SDS011;8186;57.652;11.968;2022-12-18T12:33:19;10.70;;;3.63;;
11006;SDS011;8186;57.652;11.968;2022-12-18T12:35:55;14.80;;;3.50;;
11006;SDS011;8186;57.652;11.968;2022-12-18T12:38:28;11.30;;;4.30;;
11006;SDS011;8186;57.652;11.968;2022-12-18T12:40:59;13.20;;;3.93;;
11006;SDS011;8186;57.652;11.968;2022-12-18T12:43:31;13.10;;;4.50;;
11006;SDS011;8186;57.652;11.968;2022-12-18T12:46:00;9.27;;;3.30;;
11006;SDS011;8186;57.652;11.968;2022-12-18T12:48:37;10.90;;;3.63;;
11006;SDS011;8186;57.652;11.968;2022-12-18T12:51:09;9.17;;;3.80;;
11006;SDS011;8186;57.652;11.968;2022-12-18T12:53:39;7.97;;;3.57;;
11006;SDS011;8186;57.652;11.968;2022-12-18T12:56:06;11.80;;;3.40;;
11006;SDS011;8186;57.652;11.968;2022-12-18T12:58:38;8.00;;;3.37;;
11006;SDS011;8186;57.652;11.968;2022-12-18T13:01:14;10.27;;;3.90;;
11006;SDS011;8186;57.652;11.968;2022-12-18T13:03:48;16.87;;;3.30;;
11006;SDS011;8186;57.652;11.968;2022-12-18T13:06:23;10.63;;;3.10;;
11006;SDS011;8186;57.652;11.968;2022-12-18T13:09:03;6.63;;;2.80;;
11006;SDS011;8186;57.652;11.968;2022-12-18T13:11:31;8.20;;;2.80;;
11006;SDS011;8186;57.652;11.968;2022-12-18T13:14:24;8.77;;;3.07;;
11006;SDS011;8186;57.652;11.968;2022-12-18T13:17:14;14.00;;;3.00;;
11006;SDS011;8186;57.652;11.968;2022-12-18T13:20:09;6.47;;;3.20;;
11006;SDS011;8186;57.652;11.968;2022-12-18T13:22:37;8.60;;;2.40;;
11006;SDS011;8186;57.652;11.968;2022-12-18T13:30:48;8.07;;;2.30;;
11006;SDS011;8186;57.652;11.968;2022-12-18T13:36:12;9.43;;;2.37;;
11006;SDS011;8186;57.652;11.968;2022-12-18T13:41:48;7.90;;;3.40;;
11006;SDS011;8186;57.652;11.968;2022-12-18T13:44:21;10.20;;;2.80;;
11006;SDS011;8186;57.652;11.968;2022-12-18T13:46:53;9.27;;;3.00;;
11006;SDS011;8186;57.652;11.968;2022-12-18T13:49:21;8.50;;;2.93;;
11006;SDS011;8186;57.652;11.968;2022-12-18T13:51:50;13.83;;;3.03;;
11006;SDS011;8186;57.652;11.968;2022-12-18T13:54:19;8.80;;;2.53;;
11006;SDS011;8186;57.652;11.968;2022-12-18T13:56:47;10.80;;;2.70;;
11006;SDS011;8186;57.652;11.968;2022-12-18T13:59:15;9.97;;;2.90;;
11006;SDS011;8186;57.652;11.968;2022-12-18T14:01:45;11.27;;;3.70;;
11006;SDS011;8186;57.652;11.968;2022-12-18T14:04:28;13.43;;;3.30;;
11006;SDS011;8186;57.652;11.968;2022-12-18T14:06:57;13.67;;;3.03;;
11006;SDS011;8186;57.652;11.968;2022-12-18T14:09:28;7.53;;;3.00;;
11006;SDS011;8186;57.652;11.968;2022-12-18T14:11:56;8.47;;;3.10;;
11006;SDS011;8186;57.652;11.968;2022-12-18T14:14:38;8.60;;;3.27;;
11006;SDS011;8186;57.652;11.968;2022-12-18T14:17:08;8.63;;;3.43;;
11006;SDS011;8186;57.652;11.968;2022-12-18T14:19:37;7.27;;;2.77;;
11006;SDS011;8186;57.652;11.968;2022-12-18T14:22:11;11.77;;;3.20;;
11006;SDS011;8186;57.652;11.968;2022-12-18T14:24:44;9.50;;;3.40;;
11006;SDS011;8186;57.652;11.968;2022-12-18T14:27:12;14.90;;;4.90;;
11006;SDS011;8186;57.652;11.968;2022-12-18T14:29:46;15.27;;;4.50;;
11006;SDS011;8186;57.652;11.968;2022-12-18T14:32:14;6.90;;;3.23;;
11006;SDS011;8186;57.652;11.968;2022-12-18T14:34:44;9.90;;;4.27;;
11006;SDS011;8186;57.652;11.968;2022-12-18T14:37:12;12.87;;;5.30;;
11006;SDS011;8186;57.652;11.968;2022-12-18T14:39:40;14.17;;;5.90;;
11006;SDS011;8186;57.652;11.968;2022-12-18T14:42:09;19.83;;;6.17;;
11006;SDS011;8186;57.652;11.968;2022-12-18T14:44:37;18.10;;;7.10;;
11006;SDS011;8186;57.652;11.968;2022-12-18T14:47:04;16.53;;;6.93;;
11006;SDS011;8186;57.652;11.968;2022-12-18T14:49:31;19.03;;;7.90;;
11006;SDS011;8186;57.652;11.968;2022-12-18T14:52:01;16.57;;;7.90;;
11006;SDS011;8186;57.652;11.968;2022-12-18T14:54:30;19.93;;;9.77;;
11006;SDS011;8186;57.652;11.968;2022-12-18T14:56:59;24.23;;;10.93;;
11006;SDS011;8186;57.652;11.968;2022-12-18T14:59:27;22.10;;;10.37;;
11006;SDS011;8186;57.652;11.968;2022-12-18T15:01:57;27.73;;;11.20;;